Etusivu
METAR-TAF:

METAR-TAF

Lentoasemat :

Reynosa, Meksiko

Leveyspiiri: 26-01N, Pituuspiiri: 098-14W, korkeus merenpinnasta: 39 m

Tämänhetkinen sää

Tämä raportti tehtiin 44 minuuttia sitten, kello 01.50 UTC
Tuuli 12 kn idästä/kaakosta
Lämpötila 30°C
Kosteus 62%
Ilmanpaine 1008 hPa
Näkyvyys: 16.1 km
selkeää

METAR: MMRX 170150Z 11012KT 10SM SKC 30/22 A2977 RMK ISOL CI

Aika: 21:34 (02:34 UTC)

Sääennuste

Tämä raportti tehtiin 9 tuntia ja 37 minuuttia sitten, kello 16.57 UTC
Ennuste voimassa 16. päivästä klo 18 UTC - 17. päivään klo 18 UTC
Tuuli 15 kn etelästä/kaakosta puuskistuen 25 kn:hen
Näkyvyys: 10 km
Hajanaisia pilviä 3000 ft:n korkeudessa
From 17. päivästä klo 0100 UTC
Tuuli 12 kn kaakosta
Näkyvyys: 10 km
selkeää
From 17. päivästä klo 1300 UTC
Tuuli 15 kn kaakosta
Näkyvyys: 10 km
Hajonneita pilviä 1500 ft:n korkeudessa

TAF: MMRX 161657Z 1618/1718 16015G25KT P6SM SCT030 FM170100 14012KT P6SM SKC FM171300 14015KT P6SM BKN015

Säähavainnot ja -ennusteet yli 4000 lentoasemalta (METAR- ja TAF-raportit).

Käytössä olevat sääasemat on merkitty karttaan keltaisilla ja punaisilla pisteillä.

Aseta hiiri pisteen päälle nähdäksesi sääaseman nimen.

Klikkaa sitten nähdäksesi säähavainnot ja -ennusteet.

Kartan vaihtaminen: klikkaa mustalla rastilla varustettuja vihreitä pisteitä, niin voit zoomata sisään; viivalla varustettua vihreää pistettä, niin voit zoomata ulos tai vihreitä nuolia, niin pääset viereisille kartoille.


METAR-TAF: